createdAt,value
2022-08-08T00:02:38.587Z,17.65
2022-08-08T00:08:03.653Z,17.62
2022-08-08T00:13:20.785Z,17.58
2022-08-08T00:18:59.562Z,17.51
2022-08-08T00:24:13.181Z,17.44
2022-08-08T00:29:44.800Z,17.42
2022-08-08T00:35:15.342Z,17.35
2022-08-08T00:41:11.942Z,17.35
2022-08-08T00:46:16.607Z,17.36
2022-08-08T00:51:42.240Z,17.33
2022-08-08T00:57:12.964Z,17.29
2022-08-08T01:03:59.236Z,17.32
2022-08-08T01:08:52.246Z,17.32
2022-08-08T01:14:54.488Z,17.29
2022-08-08T01:20:18.617Z,17.18
2022-08-08T01:25:42.998Z,17.16
2022-08-08T01:30:59.956Z,17.21
2022-08-08T01:36:17.012Z,17.07
2022-08-08T01:41:33.997Z,16.97
2022-08-08T01:46:52.136Z,16.91
2022-08-08T01:52:51.706Z,16.79
2022-08-08T01:58:03.982Z,16.74
2022-08-08T02:03:55.600Z,16.70
2022-08-08T02:09:02.663Z,16.65
2022-08-08T02:14:55.683Z,16.60
2022-08-08T02:21:02.582Z,16.54
2022-08-08T02:25:52.368Z,16.37
2022-08-08T02:31:43.487Z,16.28
2022-08-08T02:36:43.490Z,16.23
2022-08-08T02:41:59.614Z,16.21
2022-08-08T02:47:10.283Z,16.19
2022-08-08T02:52:38.456Z,16.08
2022-08-08T02:58:01.935Z,15.96
2022-08-08T03:03:46.308Z,15.88
2022-08-08T03:09:19.620Z,15.90
2022-08-08T03:16:00.298Z,15.86
2022-08-08T03:20:08.259Z,15.87
2022-08-08T03:25:18.619Z,15.90
2022-08-08T03:30:20.896Z,15.92
2022-08-08T03:35:24.010Z,15.90
2022-08-08T03:40:29.857Z,15.83
2022-08-08T03:46:05.005Z,15.85
2022-08-08T03:50:55.378Z,15.83
2022-08-08T03:56:04.401Z,15.83
2022-08-08T04:01:23.431Z,15.81
2022-08-08T04:06:29.753Z,15.80
2022-08-08T04:11:32.960Z,15.80
2022-08-08T04:16:53.934Z,15.78
2022-08-08T04:21:58.377Z,15.84
2022-08-08T04:27:00.543Z,15.87
2022-08-08T04:32:02.350Z,15.95
2022-08-08T04:37:04.256Z,16.05
2022-08-08T04:42:06.426Z,16.19
2022-08-08T04:47:12.957Z,16.38
2022-08-08T04:52:14.638Z,16.63
2022-08-08T04:57:16.262Z,16.86
2022-08-08T05:02:20.198Z,17.09
2022-08-08T05:07:38.238Z,17.31
2022-08-08T05:13:00.233Z,17.50
2022-08-08T05:18:03.640Z,17.68
2022-08-08T05:23:05.782Z,17.78
2022-08-08T05:28:07.822Z,17.82
2022-08-08T05:33:10.110Z,18.00
2022-08-08T05:38:31.490Z,18.24
2022-08-08T05:43:39.534Z,18.53
2022-08-08T05:48:58.129Z,18.84
2022-08-08T05:54:27.283Z,18.95
2022-08-08T05:59:58.915Z,19.30
2022-08-08T06:04:56.185Z,19.62
2022-08-08T06:10:02.078Z,19.67
2022-08-08T06:15:09.439Z,19.85
2022-08-08T06:20:17.735Z,20.19
2022-08-08T06:25:33.284Z,20.43
2022-08-08T06:30:45.302Z,20.58
2022-08-08T06:36:08.856Z,20.75
2022-08-08T06:41:17.040Z,20.88
2022-08-08T06:46:23.891Z,21.13
2022-08-08T06:51:31.457Z,21.27
2022-08-08T06:56:51.438Z,21.49
2022-08-08T07:02:29.060Z,21.65
2022-08-08T07:07:43.466Z,21.46
2022-08-08T07:13:00.352Z,21.83
2022-08-08T07:18:35.879Z,21.80
2022-08-08T07:24:00.932Z,21.84
2022-08-08T07:29:08.354Z,22.21
2022-08-08T07:34:20.316Z,22.05
2022-08-08T07:39:56.047Z,22.13
2022-08-08T07:44:54.908Z,22.36
2022-08-08T07:49:57.521Z,22.57
2022-08-08T07:55:12.932Z,22.60
2022-08-08T08:00:17.132Z,22.48
2022-08-08T08:05:33.671Z,22.65
2022-08-08T08:10:38.509Z,22.85
2022-08-08T08:15:41.324Z,23.07
2022-08-08T08:20:43.170Z,23.31
2022-08-08T08:25:51.166Z,23.20
2022-08-08T08:30:58.652Z,23.12
2022-08-08T08:36:20.155Z,23.28
2022-08-08T08:41:24.236Z,23.28
2022-08-08T08:46:27.916Z,23.63
2022-08-08T08:51:32.133Z,23.75
2022-08-08T08:56:37.278Z,23.97
2022-08-08T09:01:45.600Z,24.12
2022-08-08T09:06:51.539Z,24.38
2022-08-08T09:12:02.032Z,24.61
2022-08-08T09:17:12.924Z,24.60
2022-08-08T09:22:25.956Z,24.46
2022-08-08T09:27:55.547Z,24.43
2022-08-08T09:33:54.829Z,24.56
2022-08-08T09:38:32.030Z,24.39
2022-08-08T09:44:05.038Z,24.66
2022-08-08T09:49:41.419Z,24.67
2022-08-08T09:54:44.279Z,24.58
2022-08-08T10:00:14.682Z,23.87
2022-08-08T10:05:25.590Z,23.73
2022-08-08T10:10:37.958Z,24.28
2022-08-08T10:16:00.874Z,24.79
2022-08-08T10:21:24.759Z,25.22
2022-08-08T10:26:52.118Z,25.46
2022-08-08T10:32:16.029Z,25.16
2022-08-08T10:37:28.297Z,24.98
2022-08-08T10:42:34.939Z,25.44
2022-08-08T10:47:43.262Z,25.27
2022-08-08T10:52:46.000Z,25.31
2022-08-08T10:57:53.040Z,24.95
2022-08-08T11:02:56.280Z,24.78
2022-08-08T11:08:37.906Z,24.80
2022-08-08T11:13:30.105Z,25.28
2022-08-08T11:18:34.500Z,24.94
2022-08-08T11:23:40.795Z,25.00
2022-08-08T11:28:43.124Z,25.31
2022-08-08T11:34:01.897Z,25.40
2022-08-08T11:39:10.803Z,24.81
2022-08-08T11:44:15.828Z,24.77
2022-08-08T11:49:18.458Z,25.18
2022-08-08T11:54:50.088Z,25.44
2022-08-08T12:00:01.367Z,25.79
2022-08-08T12:05:12.174Z,25.93
2022-08-08T12:10:17.771Z,25.88
2022-08-08T12:15:40.078Z,25.64
2022-08-08T12:20:44.908Z,25.66
2022-08-08T12:25:52.662Z,25.77
2022-08-08T12:31:06.543Z,25.78
2022-08-08T12:36:13.381Z,25.82
2022-08-08T12:41:33.808Z,25.84
2022-08-08T12:46:37.091Z,25.99
2022-08-08T12:51:40.746Z,25.91
2022-08-08T12:56:52.345Z,26.04
2022-08-08T13:01:59.315Z,25.96
2022-08-08T13:07:11.878Z,25.63
2022-08-08T13:12:29.314Z,25.17
2022-08-08T13:17:53.821Z,24.76
2022-08-08T13:23:30.247Z,24.81
2022-08-08T13:28:28.710Z,25.10
2022-08-08T13:33:42.153Z,25.22
2022-08-08T13:38:45.240Z,25.48
2022-08-08T13:43:50.697Z,25.89
2022-08-08T13:49:11.329Z,26.09
2022-08-08T13:54:29.353Z,25.93
2022-08-08T13:59:48.674Z,25.73
2022-08-08T14:05:04.869Z,25.24
2022-08-08T14:10:17.566Z,24.79
2022-08-08T14:15:39.627Z,25.01
2022-08-08T14:21:02.449Z,25.27
2022-08-08T14:26:11.243Z,25.46
2022-08-08T14:31:23.413Z,25.67
2022-08-08T14:36:40.669Z,25.26
2022-08-08T14:42:03.272Z,25.09
2022-08-08T14:47:17.061Z,24.79
2022-08-08T14:52:23.186Z,24.95
2022-08-08T14:58:06.722Z,25.21
2022-08-08T15:02:59.210Z,25.51
2022-08-08T15:08:21.965Z,25.73
2022-08-08T15:13:24.562Z,25.70
2022-08-08T15:18:29.749Z,25.45
2022-08-08T15:23:33.202Z,25.19
2022-08-08T15:28:36.709Z,25.01
2022-08-08T15:33:59.356Z,24.97
2022-08-08T15:39:00.941Z,25.03
2022-08-08T15:44:03.635Z,25.15
2022-08-08T15:49:05.319Z,25.35
2022-08-08T15:54:07.123Z,25.48
2022-08-08T15:59:20.592Z,25.49
2022-08-08T16:04:42.500Z,25.12
2022-08-08T16:13:05.740Z,24.94
2022-08-08T16:15:07.059Z,24.62
2022-08-08T16:20:13.335Z,24.56
2022-08-08T16:25:15.982Z,24.54
2022-08-08T16:30:32.424Z,24.43
2022-08-08T16:35:38.208Z,24.53
2022-08-08T16:40:40.520Z,24.42
2022-08-08T16:46:36.794Z,24.34
2022-08-08T16:51:03.870Z,24.31
2022-08-08T16:56:14.341Z,24.23
2022-08-08T17:01:17.011Z,24.21
2022-08-08T17:06:37.743Z,24.20
2022-08-08T17:11:50.814Z,24.15
2022-08-08T17:16:58.393Z,24.02
2022-08-08T17:22:01.856Z,24.00
2022-08-08T17:27:04.722Z,23.86
2022-08-08T17:32:07.947Z,23.71
2022-08-08T17:37:12.795Z,23.76
2022-08-08T17:42:16.680Z,23.70
2022-08-08T17:47:23.774Z,23.60
2022-08-08T17:52:43.318Z,23.49
2022-08-08T17:57:49.074Z,23.47
2022-08-08T18:02:52.594Z,23.39
2022-08-08T18:08:09.692Z,23.28
2022-08-08T18:13:11.947Z,23.26
2022-08-08T18:18:29.422Z,23.19
2022-08-08T18:23:33.982Z,23.10
2022-08-08T18:28:54.201Z,22.99
2022-08-08T18:34:11.781Z,22.87
2022-08-08T18:39:28.593Z,22.79
2022-08-08T18:44:32.795Z,22.67
2022-08-08T18:49:40.945Z,22.57
2022-08-08T18:54:59.697Z,22.44
2022-08-08T19:00:21.549Z,22.37
2022-08-08T19:05:34.246Z,22.35
2022-08-08T19:10:41.353Z,22.37
2022-08-08T19:15:42.998Z,22.34
2022-08-08T19:20:46.514Z,22.31
2022-08-08T19:26:02.483Z,22.22
2022-08-08T19:31:12.977Z,22.12
2022-08-08T19:36:18.392Z,22.02
2022-08-08T19:41:31.453Z,21.92
2022-08-08T19:46:35.379Z,21.78
2022-08-08T19:51:41.474Z,21.72
2022-08-08T19:56:48.956Z,21.65
2022-08-08T20:02:02.934Z,21.58
2022-08-08T20:08:29.419Z,21.51
2022-08-08T20:12:34.478Z,21.48
2022-08-08T20:17:38.658Z,21.46
2022-08-08T20:22:41.044Z,21.41
2022-08-08T20:27:43.861Z,21.35
2022-08-08T20:32:53.365Z,21.33
2022-08-08T20:37:55.213Z,21.33
2022-08-08T20:42:56.918Z,21.28
2022-08-08T20:48:01.457Z,21.16
2022-08-08T20:53:03.840Z,21.12
2022-08-08T20:58:23.031Z,21.02
2022-08-08T21:03:25.024Z,20.99
2022-08-08T21:08:35.168Z,20.88
2022-08-08T21:13:41.059Z,20.82
2022-08-08T21:24:02.418Z,20.67
2022-08-08T21:29:06.057Z,20.64
2022-08-08T21:34:09.222Z,20.58
2022-08-08T21:39:22.998Z,20.49
2022-08-08T21:44:58.790Z,20.49
2022-08-08T21:50:02.554Z,20.40
2022-08-08T21:56:06.574Z,20.43
2022-08-08T22:00:27.910Z,20.42
2022-08-08T22:05:37.663Z,20.43
2022-08-08T22:10:43.235Z,20.48
2022-08-08T22:15:58.723Z,20.46
2022-08-08T22:21:14.137Z,20.48
2022-08-08T22:26:26.813Z,20.48
2022-08-08T22:31:31.735Z,20.41
2022-08-08T22:36:37.776Z,20.42
2022-08-08T22:41:44.289Z,20.29
2022-08-08T22:46:46.008Z,20.26
2022-08-08T22:51:47.984Z,20.16
2022-08-08T22:56:50.116Z,20.13
2022-08-08T23:02:02.103Z,20.14
2022-08-08T23:07:05.671Z,20.10
2022-08-08T23:12:29.043Z,20.07
2022-08-08T23:17:30.105Z,20.03
2022-08-08T23:22:32.196Z,19.87
2022-08-08T23:27:39.214Z,19.92
2022-08-08T23:32:48.857Z,19.75
2022-08-08T23:38:02.572Z,19.64
2022-08-08T23:43:05.199Z,19.59
2022-08-08T23:49:08.139Z,19.53
2022-08-08T23:54:06.530Z,19.43
2022-08-08T23:58:50.282Z,19.32
